Time;durP1;ratioP1;P1;durP2;ratioP2;P2;SDS_P1;SDS_P2;PMS_P1;PMS_P2;Temp;Humidity;BMP_temperature;BMP_pressure;BME280_temperature;BME280_humidity;BME280_pressure;Samples;Min_cycle;Max_cycle;Signal;HPM_P1;HPM_P2
2023/06/30 00:00:52;;;;;;;4.67;4.20;;;;;24.50;100270.00;;;;2066514;28;20602;-67
2023/06/30 00:01:53;;;;;;;4.13;3.73;;;;;24.50;100274.00;;;;2054571;28;20649;-67
2023/06/30 00:02:55;;;;;;;4.20;3.80;;;;;24.40;100274.00;;;;2069824;28;20217;-67
2023/06/30 00:03:55;;;;;;;4.45;4.05;;;;;24.50;100270.00;;;;2066543;28;20268;-67
2023/06/30 00:04:57;;;;;;;4.40;4.00;;;;;24.50;100275.00;;;;2055201;28;20223;-67
2023/06/30 00:05:57;;;;;;;4.43;3.90;;;;;24.50;100272.00;;;;2059940;28;20349;-67
2023/06/30 00:07:00;;;;;;;3.90;3.60;;;;;24.50;100281.00;;;;2056756;28;20304;-67
2023/06/30 00:08:00;;;;;;;3.88;3.47;;;;;24.40;100278.00;;;;2062355;28;20246;-67
2023/06/30 00:09:01;;;;;;;3.00;2.70;;;;;24.40;100267.00;;;;2062785;28;20211;-67
2023/06/30 00:10:01;;;;;;;3.73;3.20;;;;;24.40;100273.00;;;;2063762;28;20219;-67
2023/06/30 00:11:01;;;;;;;3.83;3.43;;;;;24.50;100271.00;;;;2070175;28;20225;-67
2023/06/30 00:12:02;;;;;;;3.70;3.30;;;;;24.50;100278.00;;;;2052012;28;20321;-67
2023/06/30 00:13:02;;;;;;;4.20;3.40;;;;;24.50;100270.00;;;;2055153;28;20299;-66
2023/06/30 00:14:02;;;;;;;3.93;3.00;;;;;24.40;100274.00;;;;2061931;28;20218;-66
2023/06/30 00:15:03;;;;;;;3.37;3.07;;;;;24.40;100267.00;;;;2062947;28;20285;-66
2023/06/30 00:16:03;;;;;;;3.20;2.70;;;;;24.40;100269.00;;;;2063042;28;20249;-66
2023/06/30 00:17:04;;;;;;;3.43;2.97;;;;;24.40;100267.00;;;;2045884;28;20699;-66
2023/06/30 00:18:04;;;;;;;3.60;3.00;;;;;24.50;100281.00;;;;2062401;28;20769;-66
2023/06/30 00:19:04;;;;;;;3.47;3.00;;;;;24.50;100276.00;;;;2062312;28;20215;-66
2023/06/30 00:20:06;;;;;;;3.60;2.90;;;;;24.40;100277.00;;;;2064471;28;20222;-67
2023/06/30 00:21:06;;;;;;;2.80;2.55;;;;;24.40;100273.00;;;;2063260;28;20254;-67
2023/06/30 00:22:07;;;;;;;4.90;2.90;;;;;24.40;100273.00;;;;2053022;28;20219;-67
2023/06/30 00:23:10;;;;;;;2.67;2.47;;;;;24.40;100262.00;;;;2057052;28;20215;-67
2023/06/30 00:24:12;;;;;;;3.97;2.83;;;;;24.50;100265.00;;;;2062879;28;20222;-67
2023/06/30 00:25:12;;;;;;;2.95;2.45;;;;;24.50;100268.00;;;;2065550;28;20209;-67
2023/06/30 00:26:13;;;;;;;2.67;2.37;;;;;24.50;100267.00;;;;2062623;28;20223;-66
2023/06/30 00:27:13;;;;;;;3.17;2.40;;;;;24.40;100276.00;;;;2045641;28;20230;-66
2023/06/30 00:28:13;;;;;;;4.20;2.70;;;;;24.40;100266.00;;;;2062154;28;20219;-67
2023/06/30 00:29:14;;;;;;;2.77;2.57;;;;;24.40;100264.00;;;;2063691;28;20280;-67
2023/06/30 00:30:14;;;;;;;3.83;2.57;;;;;24.40;100264.00;;;;2062154;28;20218;-67
2023/06/30 00:31:14;;;;;;;2.70;2.50;;;;;24.40;100259.00;;;;2055555;28;20358;-67
2023/06/30 00:32:15;;;;;;;2.70;2.20;;;;;24.40;100259.00;;;;2051747;28;20215;-67
2023/06/30 00:33:15;;;;;;;2.83;2.30;;;;;24.40;100268.00;;;;2061864;28;20225;-67
2023/06/30 00:34:15;;;;;;;3.00;2.40;;;;;24.50;100258.00;;;;2063258;28;20218;-67
2023/06/30 00:35:16;;;;;;;2.97;2.30;;;;;24.50;100264.00;;;;2062839;28;20289;-67
2023/06/30 00:36:16;;;;;;;3.57;2.40;;;;;24.40;100256.00;;;;2063984;28;20238;-67
2023/06/30 00:37:16;;;;;;;3.43;2.87;;;;;24.40;100263.00;;;;2058036;28;20676;-67
2023/06/30 00:38:17;;;;;;;3.00;2.37;;;;;24.40;100264.00;;;;2065692;28;20570;-67
2023/06/30 00:39:17;;;;;;;3.73;2.20;;;;;24.40;100257.00;;;;2062619;28;20667;-67
2023/06/30 00:40:17;;;;;;;3.40;1.90;;;;;24.50;100261.00;;;;2061291;28;20730;-67
2023/06/30 00:41:18;;;;;;;2.60;2.20;;;;;24.40;100256.00;;;;2057535;28;20696;-67
2023/06/30 00:42:18;;;;;;;2.83;2.17;;;;;24.40;100258.00;;;;2042720;28;20254;-67
2023/06/30 00:43:18;;;;;;;2.33;1.70;;;;;24.40;100258.00;;;;2058708;28;20675;-67
2023/06/30 00:44:21;;;;;;;3.17;2.20;;;;;24.40;100258.00;;;;2062160;28;21022;-67
2023/06/30 00:45:21;;;;;;;1.85;1.70;;;;;24.40;100254.00;;;;2061981;28;21022;-67
2023/06/30 00:46:22;;;;;;;1.80;1.60;;;;;24.40;100259.00;;;;2050518;28;20214;-67
2023/06/30 00:47:22;;;;;;;3.13;2.37;;;;;24.40;100249.00;;;;2062305;28;20225;-67
2023/06/30 00:48:22;;;;;;;2.37;1.90;;;;;24.30;100262.00;;;;2041990;28;20247;-67
2023/06/30 00:49:23;;;;;;;2.93;1.97;;;;;24.40;100258.00;;;;2046064;28;20222;-67
2023/06/30 00:50:23;;;;;;;2.40;1.83;;;;;24.40;100255.00;;;;2060650;28;20211;-67
2023/06/30 00:51:23;;;;;;;2.50;1.93;;;;;24.40;100264.00;;;;2042940;28;20295;-67
2023/06/30 00:52:24;;;;;;;2.30;1.93;;;;;24.40;100246.00;;;;2054847;28;20211;-67
2023/06/30 00:53:24;;;;;;;2.77;2.33;;;;;24.40;100254.00;;;;2062803;28;20226;-67
2023/06/30 00:54:25;;;;;;;2.90;2.30;;;;;24.40;100251.00;;;;2054990;28;20293;-67
2023/06/30 00:55:26;;;;;;;3.90;2.20;;;;;24.30;100248.00;;;;2054713;28;20215;-67
2023/06/30 00:56:26;;;;;;;2.77;2.20;;;;;24.40;100253.00;;;;2052826;28;20294;-67
2023/06/30 00:57:26;;;;;;;3.50;1.90;;;;;24.40;100253.00;;;;2064341;28;20447;-66
2023/06/30 00:58:27;;;;;;;2.50;2.30;;;;;24.40;100252.00;;;;2067762;28;20210;-66
2023/06/30 00:59:27;;;;;;;3.03;2.17;;;;;24.40;100264.00;;;;2064961;28;20233;-66
2023/06/30 01:00:27;;;;;;;3.23;1.80;;;;;24.40;100262.00;;;;2063422;28;20229;-66
2023/06/30 01:01:39;;;;;;;2.00;1.80;;;;;24.30;100241.00;;;;2042798;28;20211;-66
2023/06/30 01:02:54;;;;;;;2.30;1.70;;;;;24.30;100256.00;;;;2057764;28;20211;-66
2023/06/30 01:03:59;;;;;;;1.92;1.30;;;;;24.40;100249.00;;;;2057006;28;20209;-66
2023/06/30 01:05:06;;;;;;;1.60;1.50;;;;;24.30;100264.00;;;;2047276;28;20235;-67
2023/06/30 01:06:20;;;;;;;2.95;1.85;;;;;24.30;100268.00;;;;2044730;28;20214;-67
2023/06/30 01:07:43;;;;;;;2.10;1.90;;;;;24.40;100254.00;;;;2055068;28;20217;-67
2023/06/30 01:08:56;;;;;;;2.28;1.95;;;;;24.40;100258.00;;;;2042708;28;20247;-67
2023/06/30 01:10:00;;;;;;;2.03;1.60;;;;;24.40;100250.00;;;;2040285;28;20220;-67
2023/06/30 01:11:00;;;;;;;3.42;2.17;;;;;24.40;100233.00;;;;2058554;28;20718;-67
2023/06/30 01:12:01;;;;;;;2.97;1.90;;;;;24.40;100247.00;;;;2051326;28;20218;-67
2023/06/30 01:13:01;;;;;;;2.00;1.80;;;;;24.30;100251.00;;;;2053075;28;20222;-67
2023/06/30 01:14:02;;;;;;;2.07;1.70;;;;;24.30;100250.00;;;;2058742;28;20705;-67
2023/06/30 01:15:02;;;;;;;5.43;1.80;;;;;24.30;100235.00;;;;2048105;28;20212;-67
2023/06/30 01:16:04;;;;;;;1.97;1.60;;;;;24.30;100252.00;;;;2054521;28;20753;-67
2023/06/30 01:17:04;;;;;;;2.72;1.63;;;;;24.30;100252.00;;;;2045520;28;20289;-67
2023/06/30 01:18:04;;;;;;;1.70;1.37;;;;;24.30;100247.00;;;;2063445;28;20277;-67
2023/06/30 01:19:06;;;;;;;2.30;1.67;;;;;24.40;100247.00;;;;2062675;28;20215;-67
2023/06/30 01:20:10;;;;;;;2.20;1.80;;;;;24.30;100251.00;;;;2054683;28;20266;-67
2023/06/30 01:21:13;;;;;;;2.78;1.85;;;;;24.40;100241.00;;;;2050455;28;20525;-67
2023/06/30 01:22:26;;;;;;;3.15;1.67;;;;;24.30;100256.00;;;;2032749;28;20268;-67
2023/06/30 01:23:33;;;;;;;3.83;1.90;;;;;24.30;100257.00;;;;2044455;28;20307;-67
2023/06/30 01:24:34;;;;;;;3.95;2.10;;;;;24.40;100265.00;;;;2052069;28;20943;-66
2023/06/30 01:25:34;;;;;;;4.27;1.73;;;;;24.40;100259.00;;;;2059843;28;20219;-66
2023/06/30 01:26:35;;;;;;;4.60;1.50;;;;;24.40;100259.00;;;;2053229;28;20822;-66
2023/06/30 01:27:36;;;;;;;3.67;1.92;;;;;24.30;100254.00;;;;2060319;28;20274;-66
2023/06/30 01:28:36;;;;;;;2.87;1.60;;;;;24.30;100248.00;;;;2051003;28;20687;-66
2023/06/30 01:29:36;;;;;;;3.07;1.90;;;;;24.30;100251.00;;;;2038888;28;20213;-66
2023/06/30 01:30:37;;;;;;;3.03;1.80;;;;;24.40;100231.00;;;;2051246;28;20214;-66
2023/06/30 01:31:38;;;;;;;2.00;1.63;;;;;24.30;100254.00;;;;2038027;28;20236;-66
2023/06/30 01:32:39;;;;;;;5.03;1.70;;;;;24.30;100248.00;;;;2050499;28;20567;-66
2023/06/30 01:33:39;;;;;;;3.63;1.63;;;;;24.30;100257.00;;;;2055394;28;20235;-66
2023/06/30 01:34:39;;;;;;;2.70;1.53;;;;;24.30;100251.00;;;;2046736;28;20295;-66
2023/06/30 01:35:40;;;;;;;4.20;1.90;;;;;24.30;100262.00;;;;2058824;28;20220;-66
2023/06/30 01:36:40;;;;;;;1.97;1.60;;;;;24.30;100260.00;;;;2051171;28;20234;-66
2023/06/30 01:37:40;;;;;;;3.63;1.70;;;;;24.30;100260.00;;;;2060704;28;20218;-66
2023/06/30 01:38:42;;;;;;;2.13;1.57;;;;;24.30;100266.00;;;;2062431;28;20734;-66
2023/06/30 01:39:43;;;;;;;2.33;1.67;;;;;24.30;100268.00;;;;2062143;28;20713;-66
2023/06/30 01:40:44;;;;;;;2.13;1.77;;;;;24.30;100244.00;;;;2067391;28;20281;-66
2023/06/30 01:41:44;;;;;;;2.40;1.40;;;;;24.30;100235.00;;;;2036791;28;20685;-66
2023/06/30 01:42:45;;;;;;;2.37;2.03;;;;;24.30;100255.00;;;;2046091;28;20206;-66
2023/06/30 01:43:45;;;;;;;2.40;1.80;;;;;24.30;100269.00;;;;2054626;28;20270;-66
2023/06/30 01:44:45;;;;;;;3.00;1.50;;;;;24.30;100261.00;;;;2048225;28;20220;-67
2023/06/30 01:45:46;;;;;;;2.80;1.87;;;;;24.30;100263.00;;;;2048819;28;20294;-67
2023/06/30 01:46:46;;;;;;;2.93;2.10;;;;;24.30;100266.00;;;;2030981;28;21815;-67
2023/06/30 01:47:46;;;;;;;3.00;1.77;;;;;24.30;100267.00;;;;2051367;28;20239;-67
2023/06/30 01:48:47;;;;;;;2.43;1.47;;;;;24.30;100257.00;;;;2062365;28;20215;-67
2023/06/30 01:49:47;;;;;;;2.20;1.80;;;;;24.30;100266.00;;;;2065730;28;22493;-66
2023/06/30 01:50:47;;;;;;;1.70;1.40;;;;;24.30;100262.00;;;;2066280;28;20263;-66
2023/06/30 01:51:48;;;;;;;2.90;1.50;;;;;24.30;100267.00;;;;2043650;28;20231;-66
2023/06/30 01:52:49;;;;;;;2.92;1.70;;;;;24.30;100268.00;;;;2045176;28;20715;-66
2023/06/30 01:53:50;;;;;;;2.03;1.50;;;;;24.30;100267.00;;;;2054171;28;20235;-66
2023/06/30 01:54:50;;;;;;;2.40;1.60;;;;;24.30;100263.00;;;;2055926;28;20639;-66
2023/06/30 01:55:52;;;;;;;2.60;1.53;;;;;24.30;100264.00;;;;2051374;28;20743;-66
2023/06/30 01:56:52;;;;;;;2.40;1.65;;;;;24.30;100264.00;;;;2036839;28;20252;-66
2023/06/30 01:57:52;;;;;;;2.17;1.77;;;;;24.30;100259.00;;;;2054083;28;20219;-66
2023/06/30 01:58:53;;;;;;;3.30;1.50;;;;;24.30;100261.00;;;;2062378;28;20296;-66
2023/06/30 01:59:53;;;;;;;3.03;1.50;;;;;24.30;100248.00;;;;2065784;28;20214;-66
2023/06/30 02:00:53;;;;;;;3.60;1.83;;;;;24.30;100253.00;;;;2063096;28;20632;-66
2023/06/30 02:01:54;;;;;;;2.83;1.30;;;;;24.30;100249.00;;;;2051091;28;20635;-66
2023/06/30 02:02:54;;;;;;;4.50;2.20;;;;;24.30;100250.00;;;;2063749;28;20215;-66
2023/06/30 02:03:54;;;;;;;4.07;1.60;;;;;24.30;100249.00;;;;2063682;28;20584;-66
2023/06/30 02:04:54;;;;;;;2.03;1.50;;;;;24.30;100249.00;;;;2064043;28;20839;-66
2023/06/30 02:05:55;;;;;;;2.60;1.80;;;;;24.30;100251.00;;;;2067189;28;20717;-66
2023/06/30 02:06:55;;;;;;;1.90;1.50;;;;;24.30;100245.00;;;;2055620;28;20683;-66
2023/06/30 02:07:55;;;;;;;2.40;1.50;;;;;24.30;100241.00;;;;2062800;28;20217;-66
2023/06/30 02:08:56;;;;;;;2.67;1.60;;;;;24.30;100245.00;;;;2061438;28;20243;-66
2023/06/30 02:09:56;;;;;;;1.90;1.40;;;;;24.20;100248.00;;;;2062027;28;20273;-66
2023/06/30 02:10:56;;;;;;;4.10;2.00;;;;;24.20;100244.00;;;;2068077;28;20245;-67
2023/06/30 02:11:57;;;;;;;3.83;1.20;;;;;24.30;100242.00;;;;2055961;28;20226;-67
2023/06/30 02:12:57;;;;;;;1.47;1.30;;;;;24.30;100241.00;;;;2065625;28;20254;-67
2023/06/30 02:13:58;;;;;;;2.00;1.40;;;;;24.30;100240.00;;;;2055845;28;20307;-67
2023/06/30 02:14:58;;;;;;;3.37;1.73;;;;;24.20;100241.00;;;;2054729;28;20223;-67
2023/06/30 02:15:58;;;;;;;1.90;1.30;;;;;24.20;100250.00;;;;2063491;28;20230;-67
2023/06/30 02:16:58;;;;;;;1.83;1.10;;;;;24.20;100247.00;;;;2052757;28;20211;-67
2023/06/30 02:17:59;;;;;;;1.87;1.50;;;;;24.20;100244.00;;;;2056623;28;20503;-67
2023/06/30 02:18:59;;;;;;;2.13;1.30;;;;;24.20;100248.00;;;;2058727;28;20215;-67
2023/06/30 02:19:59;;;;;;;1.70;1.27;;;;;24.20;100251.00;;;;2064076;28;20589;-67
2023/06/30 02:21:00;;;;;;;2.10;1.53;;;;;24.30;100242.00;;;;2064307;28;20219;-67
2023/06/30 02:22:00;;;;;;;1.50;1.40;;;;;24.30;100247.00;;;;2057160;28;20222;-66
2023/06/30 02:23:00;;;;;;;3.10;1.63;;;;;24.30;100250.00;;;;2066345;28;20214;-66
2023/06/30 02:24:01;;;;;;;2.93;1.50;;;;;24.20;100243.00;;;;2064054;28;20246;-66
2023/06/30 02:25:01;;;;;;;3.27;1.80;;;;;24.20;100248.00;;;;2065146;28;20638;-66
2023/06/30 02:26:02;;;;;;;2.20;1.67;;;;;24.20;100256.00;;;;2062485;28;20219;-66
2023/06/30 02:27:02;;;;;;;3.17;1.67;;;;;24.20;100255.00;;;;2053813;28;20277;-66
2023/06/30 02:28:02;;;;;;;1.77;1.43;;;;;24.30;100248.00;;;;2063594;28;20222;-66
2023/06/30 02:29:03;;;;;;;2.40;1.63;;;;;24.30;100250.00;;;;2063244;28;20207;-66
2023/06/30 02:30:05;;;;;;;2.60;1.63;;;;;24.30;100263.00;;;;2062114;28;20215;-66
2023/06/30 02:31:05;;;;;;;3.13;1.67;;;;;24.30;100259.00;;;;2062271;28;20305;-66
2023/06/30 02:32:06;;;;;;;1.80;1.63;;;;;24.30;100256.00;;;;2059213;28;20214;-66
2023/06/30 02:33:07;;;;;;;4.00;1.50;;;;;24.20;100267.00;;;;2065589;28;20211;-66
2023/06/30 02:34:07;;;;;;;3.20;1.70;;;;;24.20;100260.00;;;;2063105;28;20314;-66
2023/06/30 02:35:08;;;;;;;3.20;2.00;;;;;24.20;100269.00;;;;2067947;28;20214;-66
2023/06/30 02:36:09;;;;;;;3.05;1.80;;;;;24.20;100271.00;;;;2062173;28;20261;-66
2023/06/30 02:37:09;;;;;;;2.83;1.80;;;;;24.20;100268.00;;;;2039461;28;20267;-66
2023/06/30 02:38:09;;;;;;;2.70;1.70;;;;;24.30;100268.00;;;;2063147;28;20207;-66
2023/06/30 02:39:09;;;;;;;3.07;1.33;;;;;24.30;100261.00;;;;2065403;28;20230;-66
2023/06/30 02:40:10;;;;;;;3.03;1.50;;;;;24.30;100263.00;;;;2064195;28;20210;-66
2023/06/30 02:41:10;;;;;;;1.80;1.53;;;;;24.20;100262.00;;;;2056423;28;20219;-66
2023/06/30 02:42:11;;;;;;;4.33;1.90;;;;;24.20;100268.00;;;;2047812;28;20251;-66
2023/06/30 02:43:11;;;;;;;2.53;1.80;;;;;24.20;100270.00;;;;2063912;28;20265;-66
2023/06/30 02:44:12;;;;;;;2.50;1.50;;;;;24.20;100269.00;;;;2064302;28;20597;-66
2023/06/30 02:45:12;;;;;;;2.53;1.80;;;;;24.20;100267.00;;;;2064628;28;20221;-66
2023/06/30 02:46:12;;;;;;;2.07;1.20;;;;;24.20;100272.00;;;;2066022;28;20223;-66
2023/06/30 02:47:13;;;;;;;3.27;1.50;;;;;24.20;100275.00;;;;2051777;28;20211;-66
2023/06/30 02:48:13;;;;;;;4.30;1.80;;;;;24.30;100280.00;;;;2066491;28;20214;-66
2023/06/30 02:49:13;;;;;;;1.63;1.20;;;;;24.30;100281.00;;;;2064676;28;20211;-66
2023/06/30 02:50:14;;;;;;;2.47;1.33;;;;;24.10;100279.00;;;;2063645;28;20245;-66
2023/06/30 02:51:14;;;;;;;2.70;1.40;;;;;24.20;100280.00;;;;2067092;28;20210;-66
2023/06/30 02:52:14;;;;;;;3.97;1.90;;;;;24.20;100284.00;;;;2053327;28;20219;-66
2023/06/30 02:53:15;;;;;;;2.20;1.47;;;;;24.20;100281.00;;;;2062757;28;20238;-66
2023/06/30 02:54:15;;;;;;;2.13;1.50;;;;;24.20;100284.00;;;;2063240;28;20606;-66
2023/06/30 02:55:15;;;;;;;3.30;1.40;;;;;24.20;100290.00;;;;2064174;28;20326;-66
2023/06/30 02:56:17;;;;;;;2.90;1.63;;;;;24.20;100286.00;;;;2068365;28;20225;-66
2023/06/30 02:57:17;;;;;;;1.98;1.20;;;;;24.20;100294.00;;;;2053906;28;20219;-66
2023/06/30 02:58:17;;;;;;;2.93;1.53;;;;;24.20;100299.00;;;;2064651;28;20215;-66
2023/06/30 02:59:18;;;;;;;1.97;1.50;;;;;24.30;100302.00;;;;2061414;28;20226;-66
2023/06/30 03:00:19;;;;;;;2.50;1.50;;;;;24.20;100296.00;;;;2064088;28;20242;-67
2023/06/30 03:01:21;;;;;;;3.13;1.60;;;;;24.20;100301.00;;;;2055674;28;20219;-66
2023/06/30 03:02:21;;;;;;;2.35;1.45;;;;;24.20;100305.00;;;;2055846;28;20680;-66
2023/06/30 03:03:22;;;;;;;2.50;1.67;;;;;24.20;100299.00;;;;2064381;28;20292;-66
2023/06/30 03:04:22;;;;;;;5.03;2.63;;;;;24.20;100299.00;;;;2055407;28;20215;-67
2023/06/30 03:05:22;;;;;;;2.10;1.30;;;;;24.20;100298.00;;;;2052731;28;25133;-67
2023/06/30 03:06:23;;;;;;;1.80;1.20;;;;;24.20;100298.00;;;;2061241;28;20222;-67
2023/06/30 03:07:23;;;;;;;1.97;1.53;;;;;24.20;100299.00;;;;2063476;28;20230;-67
2023/06/30 03:08:24;;;;;;;3.23;1.50;;;;;24.20;100305.00;;;;2064064;28;20218;-67
2023/06/30 03:09:24;;;;;;;3.60;1.90;;;;;24.20;100296.00;;;;2067175;28;20225;-66
2023/06/30 03:10:24;;;;;;;1.60;1.20;;;;;24.20;100305.00;;;;2063348;28;20215;-66
2023/06/30 03:11:25;;;;;;;3.17;1.73;;;;;24.20;100301.00;;;;2046866;28;20262;-66
2023/06/30 03:12:25;;;;;;;1.83;1.23;;;;;24.20;100304.00;;;;2065414;28;20222;-66
2023/06/30 03:13:25;;;;;;;4.07;1.43;;;;;24.20;100301.00;;;;2057305;28;20265;-66
2023/06/30 03:14:26;;;;;;;3.53;1.57;;;;;24.20;100298.00;;;;2064839;28;20215;-66
2023/06/30 03:15:26;;;;;;;2.50;1.50;;;;;24.20;100291.00;;;;2064326;28;20222;-66
2023/06/30 03:16:26;;;;;;;2.77;1.60;;;;;24.20;100298.00;;;;2038250;28;20232;-66
2023/06/30 03:17:27;;;;;;;2.80;1.60;;;;;24.20;100292.00;;;;2055389;28;20211;-66
2023/06/30 03:18:27;;;;;;;4.37;1.77;;;;;24.20;100288.00;;;;2063223;28;20238;-66
2023/06/30 03:19:27;;;;;;;2.97;1.60;;;;;24.20;100284.00;;;;2067628;28;20256;-66
2023/06/30 03:20:28;;;;;;;2.60;1.43;;;;;24.20;100287.00;;;;2066106;28;20210;-66
2023/06/30 03:21:28;;;;;;;5.83;1.73;;;;;24.20;100284.00;;;;2053471;28;20234;-66
2023/06/30 03:22:28;;;;;;;2.40;1.83;;;;;24.20;100276.00;;;;2069304;28;20210;-66
2023/06/30 03:23:29;;;;;;;3.73;1.80;;;;;24.20;100276.00;;;;2063591;28;20218;-66
2023/06/30 03:24:29;;;;;;;3.97;1.60;;;;;24.20;100279.00;;;;2062457;28;20211;-67
2023/06/30 03:25:29;;;;;;;1.27;1.10;;;;;24.20;100285.00;;;;2063663;28;20221;-66
2023/06/30 03:26:30;;;;;;;2.33;1.40;;;;;24.20;100278.00;;;;2053373;28;20211;-66
2023/06/30 03:27:30;;;;;;;2.80;1.43;;;;;24.20;100280.00;;;;2070378;28;20233;-66
2023/06/30 03:28:30;;;;;;;3.50;1.70;;;;;24.20;100284.00;;;;2063301;28;20223;-66
2023/06/30 03:29:31;;;;;;;2.23;1.50;;;;;24.20;100282.00;;;;2064205;28;20257;-66
2023/06/30 03:30:31;;;;;;;2.83;1.30;;;;;24.20;100285.00;;;;2066286;28;20210;-66
2023/06/30 03:31:31;;;;;;;2.17;1.40;;;;;24.20;100282.00;;;;2053374;28;20218;-66
2023/06/30 03:32:32;;;;;;;2.27;1.43;;;;;24.20;100283.00;;;;2062377;28;20222;-66
2023/06/30 03:33:32;;;;;;;2.77;1.77;;;;;24.20;100279.00;;;;2060268;28;20215;-66
2023/06/30 03:34:32;;;;;;;1.83;1.50;;;;;24.20;100276.00;;;;2057622;28;20219;-66
2023/06/30 03:35:33;;;;;;;2.17;1.43;;;;;24.20;100281.00;;;;2065764;28;20230;-66
2023/06/30 03:36:33;;;;;;;3.40;1.50;;;;;24.20;100280.00;;;;2054595;28;20235;-66
2023/06/30 03:37:33;;;;;;;2.33;1.20;;;;;24.20;100281.00;;;;2063158;28;20286;-66
2023/06/30 03:38:34;;;;;;;2.80;1.37;;;;;24.10;100281.00;;;;2067322;28;20214;-66
2023/06/30 03:39:34;;;;;;;2.53;1.47;;;;;24.20;100279.00;;;;2064107;28;20209;-66
2023/06/30 03:40:34;;;;;;;2.27;1.60;;;;;24.20;100285.00;;;;2063479;28;20621;-66
2023/06/30 03:41:35;;;;;;;3.93;1.77;;;;;24.20;100290.00;;;;2054194;28;20217;-66
2023/06/30 03:42:35;;;;;;;1.90;1.33;;;;;24.20;100292.00;;;;2065208;28;20239;-66
2023/06/30 03:43:35;;;;;;;2.40;1.40;;;;;24.20;100283.00;;;;2068561;28;20262;-66
2023/06/30 03:44:36;;;;;;;2.47;1.53;;;;;24.20;100292.00;;;;2054248;28;20239;-66
2023/06/30 03:45:38;;;;;;;3.63;1.57;;;;;24.20;100283.00;;;;2061218;28;20203;-66
2023/06/30 03:46:38;;;;;;;3.03;1.58;;;;;24.20;100275.00;;;;2048158;28;20290;-66
2023/06/30 03:47:38;;;;;;;3.13;1.50;;;;;24.20;100262.00;;;;2054780;28;20688;-66
2023/06/30 03:48:39;;;;;;;2.27;1.40;;;;;24.10;100273.00;;;;2063343;28;20312;-66
2023/06/30 03:49:39;;;;;;;2.60;1.33;;;;;24.10;100271.00;;;;2062336;28;20214;-66
2023/06/30 03:50:45;;;;;;;2.13;1.40;;;;;24.20;100268.00;;;;2063955;28;20223;-66
2023/06/30 03:51:46;;;;;;;3.38;1.50;;;;;24.20;100273.00;;;;2056834;28;20809;-67
2023/06/30 03:52:46;;;;;;;3.10;1.40;;;;;24.10;100274.00;;;;2063911;28;20215;-67
2023/06/30 03:53:46;;;;;;;2.10;1.10;;;;;24.10;100277.00;;;;2063226;28;20286;-67
2023/06/30 03:54:47;;;;;;;2.77;1.50;;;;;24.20;100280.00;;;;2062608;28;20211;-67
2023/06/30 03:55:47;;;;;;;3.13;1.43;;;;;24.20;100275.00;;;;2058263;28;20227;-67
2023/06/30 03:56:47;;;;;;;3.73;1.40;;;;;24.20;100281.00;;;;2055694;28;20305;-66
2023/06/30 03:57:48;;;;;;;3.13;1.60;;;;;24.20;100276.00;;;;2064429;28;20254;-66
2023/06/30 03:58:48;;;;;;;3.87;1.47;;;;;24.10;100280.00;;;;2063093;28;20314;-66
2023/06/30 03:59:49;;;;;;;3.47;1.50;;;;;24.10;100285.00;;;;2060175;28;20208;-66
2023/06/30 04:00:49;;;;;;;3.70;1.40;;;;;24.20;100280.00;;;;2061564;28;20222;-66
2023/06/30 04:01:49;;;;;;;2.07;1.50;;;;;24.20;100279.00;;;;2049289;28;20235;-66
2023/06/30 04:02:50;;;;;;;2.13;1.53;;;;;24.20;100281.00;;;;2062732;28;20215;-66
2023/06/30 04:03:51;;;;;;;2.23;1.17;;;;;24.20;100275.00;;;;2060792;28;20269;-66
2023/06/30 04:04:51;;;;;;;1.92;1.20;;;;;24.20;100276.00;;;;2048293;28;20235;-66
2023/06/30 04:05:52;;;;;;;2.03;1.27;;;;;24.20;100279.00;;;;2047347;28;20212;-66
2023/06/30 04:06:53;;;;;;;5.47;1.60;;;;;24.20;100275.00;;;;2055119;28;20226;-66
2023/06/30 04:07:53;;;;;;;3.20;1.77;;;;;24.10;100276.00;;;;2050255;28;21018;-66
2023/06/30 04:08:53;;;;;;;2.33;1.10;;;;;24.10;100270.00;;;;2053710;28;20811;-66
2023/06/30 04:09:54;;;;;;;3.33;1.37;;;;;24.10;100269.00;;;;2065513;28;20207;-66
2023/06/30 04:10:55;;;;;;;2.90;1.57;;;;;24.10;100267.00;;;;2063806;28;20293;-66
2023/06/30 04:11:55;;;;;;;2.43;1.50;;;;;24.10;100268.00;;;;2042521;28;20322;-66
2023/06/30 04:12:55;;;;;;;3.70;1.53;;;;;24.10;100276.00;;;;2050714;28;20239;-66
2023/06/30 04:14:00;;;;;;;3.03;1.20;;;;;24.10;100269.00;;;;2062768;28;20684;-66
2023/06/30 04:15:00;;;;;;;2.53;1.33;;;;;24.10;100272.00;;;;2063605;28;20222;-66
2023/06/30 04:16:01;;;;;;;2.60;1.00;;;;;24.10;100272.00;;;;2065601;28;20230;-66
2023/06/30 04:17:01;;;;;;;2.50;1.80;;;;;24.10;100276.00;;;;2053301;28;20249;-66
2023/06/30 04:18:02;;;;;;;1.60;1.20;;;;;24.10;100273.00;;;;2058631;28;20230;-66
2023/06/30 04:19:02;;;;;;;2.90;1.40;;;;;24.10;100272.00;;;;2060520;28;20227;-66
2023/06/30 04:20:06;;;;;;;2.13;1.47;;;;;24.10;100269.00;;;;2063426;28;20245;-67
2023/06/30 04:21:07;;;;;;;3.92;1.77;;;;;24.10;100268.00;;;;2065394;28;20253;-67
2023/06/30 04:22:07;;;;;;;3.37;1.40;;;;;24.10;100245.00;;;;2052179;28;20226;-67
2023/06/30 04:23:07;;;;;;;3.70;1.70;;;;;24.10;100259.00;;;;2057019;28;20272;-67
2023/06/30 04:24:08;;;;;;;3.13;1.73;;;;;24.10;100250.00;;;;2060211;28;20223;-67
2023/06/30 04:25:08;;;;;;;2.80;1.70;;;;;24.10;100257.00;;;;2065900;28;20227;-67
2023/06/30 04:26:09;;;;;;;2.10;1.53;;;;;24.10;100257.00;;;;2064369;28;20584;-67
2023/06/30 04:27:09;;;;;;;4.40;1.30;;;;;24.10;100261.00;;;;2059518;28;20577;-67
2023/06/30 04:28:09;;;;;;;3.13;1.43;;;;;24.10;100264.00;;;;2066205;28;20215;-67
2023/06/30 04:29:10;;;;;;;1.83;1.10;;;;;24.10;100256.00;;;;2063866;28;20297;-66
2023/06/30 04:30:11;;;;;;;3.17;1.67;;;;;24.10;100261.00;;;;2067653;28;20222;-66
2023/06/30 04:31:11;;;;;;;3.70;1.63;;;;;24.10;100265.00;;;;2062519;28;20253;-66
2023/06/30 04:32:11;;;;;;;3.60;1.50;;;;;24.10;100264.00;;;;2053751;28;20469;-66
2023/06/30 04:33:12;;;;;;;1.77;1.30;;;;;24.10;100270.00;;;;2058546;28;20230;-66
2023/06/30 04:34:12;;;;;;;4.37;1.63;;;;;24.10;100266.00;;;;2062025;28;20239;-66
2023/06/30 04:35:14;;;;;;;2.70;1.50;;;;;24.10;100270.00;;;;2069060;28;20214;-66
2023/06/30 04:36:17;;;;;;;1.98;1.38;;;;;24.10;100264.00;;;;2063451;28;20226;-66
2023/06/30 04:37:17;;;;;;;2.92;1.42;;;;;24.10;100271.00;;;;2053739;28;20242;-66
2023/06/30 04:38:19;;;;;;;2.80;1.43;;;;;24.10;100266.00;;;;2062807;28;20214;-67
2023/06/30 04:39:19;;;;;;;4.57;1.67;;;;;24.10;100272.00;;;;2063510;28;20206;-67
2023/06/30 04:40:20;;;;;;;2.77;1.50;;;;;24.10;100267.00;;;;2062611;28;20211;-67
2023/06/30 04:41:20;;;;;;;2.33;1.57;;;;;24.10;100276.00;;;;2058950;28;20214;-67
2023/06/30 04:42:20;;;;;;;2.20;1.60;;;;;24.10;100273.00;;;;2049579;28;20219;-67
2023/06/30 04:43:21;;;;;;;2.97;1.70;;;;;24.10;100281.00;;;;2054225;28;20216;-67
2023/06/30 04:44:21;;;;;;;5.70;1.97;;;;;24.10;100288.00;;;;2064637;28;20552;-67
2023/06/30 04:45:21;;;;;;;2.10;1.47;;;;;24.10;100286.00;;;;2062895;28;20731;-67
2023/06/30 04:46:24;;;;;;;2.60;1.30;;;;;24.10;100280.00;;;;2058071;28;21037;-67
2023/06/30 04:47:24;;;;;;;4.18;1.75;;;;;24.10;100288.00;;;;2052543;28;20950;-67
2023/06/30 04:48:24;;;;;;;4.33;1.60;;;;;24.10;100272.00;;;;2062770;28;20263;-67
2023/06/30 04:49:25;;;;;;;2.80;1.40;;;;;24.10;100281.00;;;;2065965;28;20666;-67
2023/06/30 04:50:25;;;;;;;2.70;1.30;;;;;24.10;100286.00;;;;2062886;28;20304;-66
2023/06/30 04:51:26;;;;;;;2.53;1.50;;;;;24.10;100284.00;;;;2059521;28;20218;-66
2023/06/30 04:52:26;;;;;;;3.30;1.70;;;;;24.10;100285.00;;;;2062746;28;20222;-66
2023/06/30 04:53:26;;;;;;;2.73;1.50;;;;;24.10;100284.00;;;;2063565;28;20663;-66
2023/06/30 04:54:27;;;;;;;2.80;1.53;;;;;24.10;100280.00;;;;2064002;28;20923;-66
2023/06/30 04:55:27;;;;;;;4.00;1.67;;;;;24.10;100294.00;;;;2055816;28;20220;-66
2023/06/30 04:56:27;;;;;;;3.30;1.70;;;;;24.10;100293.00;;;;2059513;28;20623;-66
2023/06/30 04:57:28;;;;;;;3.20;1.53;;;;;24.10;100299.00;;;;2062377;28;20606;-67
2023/06/30 04:58:28;;;;;;;3.23;1.43;;;;;24.10;100300.00;;;;2063594;28;20581;-67
2023/06/30 04:59:28;;;;;;;2.33;1.23;;;;;24.10;100297.00;;;;2062889;28;20218;-67
2023/06/30 05:00:29;;;;;;;1.80;1.20;;;;;24.10;100303.00;;;;2063582;28;20300;-67
2023/06/30 05:01:29;;;;;;;2.63;1.47;;;;;24.10;100298.00;;;;2059938;28;20222;-67